createdAt,value
2018-06-19T00:00:06.409Z,19.07
2018-06-19T00:00:46.800Z,19.05
2018-06-19T00:01:27.203Z,19.02
2018-06-19T00:02:07.516Z,19.09
2018-06-19T00:02:48.016Z,18.96
2018-06-19T00:03:28.370Z,18.99
2018-06-19T00:04:08.909Z,18.97
2018-06-19T00:04:49.217Z,19.02
2018-06-19T00:05:29.623Z,18.94
2018-06-19T00:06:10.796Z,18.96
2018-06-19T00:06:51.189Z,18.91
2018-06-19T00:07:31.520Z,18.9
2018-06-19T00:08:11.972Z,18.87
2018-06-19T00:08:52.450Z,18.9
2018-06-19T00:09:32.786Z,18.9
2018-06-19T00:10:13.134Z,18.9
2018-06-19T00:10:53.623Z,18.87
2018-06-19T00:11:34.004Z,18.96
2018-06-19T00:12:14.346Z,18.91
2018-06-19T00:12:54.777Z,18.9
2018-06-19T00:13:35.206Z,18.79
2018-06-19T00:14:15.613Z,18.79
2018-06-19T00:14:56.034Z,18.86
2018-06-19T00:15:36.423Z,18.84
2018-06-19T00:16:16.888Z,18.82
2018-06-19T00:16:57.276Z,18.83
2018-06-19T00:17:37.646Z,18.79
2018-06-19T00:18:18.045Z,18.82
2018-06-19T00:18:58.432Z,18.79
2018-06-19T00:19:38.891Z,18.69
2018-06-19T00:20:19.335Z,18.76
2018-06-19T00:20:59.744Z,18.69
2018-06-19T00:21:40.298Z,18.71
2018-06-19T00:22:20.663Z,18.71
2018-06-19T00:23:01.132Z,18.66
2018-06-19T00:23:41.511Z,18.68
2018-06-19T00:24:21.892Z,18.6
2018-06-19T00:25:02.328Z,18.65
2018-06-19T00:25:42.700Z,18.6
2018-06-19T00:26:23.095Z,18.6
2018-06-19T00:27:03.604Z,18.59
2018-06-19T00:27:43.955Z,18.57
2018-06-19T00:28:24.401Z,18.54
2018-06-19T00:29:04.815Z,18.54
2018-06-19T00:29:45.188Z,18.51
2018-06-19T00:30:25.607Z,18.5
2018-06-19T00:31:06.049Z,18.49
2018-06-19T00:31:46.385Z,18.41
2018-06-19T00:32:26.816Z,18.41
2018-06-19T00:33:07.388Z,18.41
2018-06-19T00:33:47.755Z,18.34
2018-06-19T00:34:28.223Z,18.34
2018-06-19T00:35:08.529Z,18.28
2018-06-19T00:35:49.115Z,18.31
2018-06-19T00:36:29.487Z,18.26
2018-06-19T00:37:09.895Z,18.28
2018-06-19T00:37:50.303Z,18.14
2018-06-19T00:38:30.776Z,18.21
2018-06-19T00:39:11.130Z,18.11
2018-06-19T00:39:51.581Z,18.05
2018-06-19T00:40:32.002Z,18.09
2018-06-19T00:41:12.342Z,18.09
2018-06-19T00:41:52.800Z,17.94
2018-06-19T00:42:33.192Z,17.94
2018-06-19T00:43:13.676Z,17.98
2018-06-19T00:43:54.158Z,18.01
2018-06-19T00:44:34.512Z,17.92
2018-06-19T00:45:14.865Z,17.92
2018-06-19T00:45:55.287Z,17.87
2018-06-19T00:46:35.780Z,17.98
2018-06-19T00:47:16.236Z,17.84
2018-06-19T00:47:56.650Z,17.83
2018-06-19T00:48:37.038Z,17.81
2018-06-19T00:49:17.517Z,17.8
2018-06-19T00:49:58.219Z,17.83
2018-06-19T00:50:38.753Z,17.81
2018-06-19T00:51:19.053Z,17.73
2018-06-19T00:51:59.534Z,17.76
2018-06-19T00:52:39.897Z,17.83
2018-06-19T00:53:20.367Z,17.83
2018-06-19T00:54:00.857Z,17.83
2018-06-19T00:54:41.302Z,17.89
2018-06-19T00:55:21.795Z,17.87
2018-06-19T00:56:02.178Z,17.8
2018-06-19T00:56:42.645Z,17.84
2018-06-19T00:57:23.061Z,17.91
2018-06-19T00:58:03.473Z,17.84
2018-06-19T00:58:43.812Z,17.91
2018-06-19T00:59:24.268Z,17.96
2018-06-19T01:00:04.687Z,17.87
2018-06-19T01:00:45.035Z,17.95
2018-06-19T01:01:25.474Z,18.07
2018-06-19T01:02:05.893Z,18.09
2018-06-19T01:02:46.285Z,18.14
2018-06-19T01:03:26.679Z,18.13
2018-06-19T01:04:07.120Z,18.17
2018-06-19T01:04:47.494Z,18.2
2018-06-19T01:05:27.889Z,18.16
2018-06-19T01:06:08.287Z,18.2
2018-06-19T01:06:48.742Z,18.2
2018-06-19T01:07:29.096Z,18.19
2018-06-19T01:08:09.496Z,18.14
2018-06-19T01:08:49.889Z,18.14
2018-06-19T01:09:30.289Z,18.2
2018-06-19T01:10:10.655Z,18.14
2018-06-19T01:10:51.095Z,18.21
2018-06-19T01:11:31.451Z,18.28
2018-06-19T01:12:11.989Z,18.19
2018-06-19T01:12:52.331Z,18.19
2018-06-19T01:13:32.724Z,18.19
2018-06-19T01:14:13.220Z,18.09
2018-06-19T01:14:53.567Z,18.09
2018-06-19T01:15:33.899Z,18.05
2018-06-19T01:16:14.391Z,18.13
2018-06-19T01:16:54.810Z,18.07
2018-06-19T01:17:35.188Z,17.96
2018-06-19T01:18:15.600Z,18.05
2018-06-19T01:18:55.965Z,18.11
2018-06-19T01:19:36.462Z,18.14
2018-06-19T01:20:16.785Z,18.17
2018-06-19T01:20:57.206Z,18.16
2018-06-19T01:21:37.625Z,18.2
2018-06-19T01:22:17.982Z,18.05
2018-06-19T01:22:58.444Z,18.1
2018-06-19T01:23:38.752Z,18.07
2018-06-19T01:24:19.197Z,18.01
2018-06-19T01:24:59.563Z,18.09
2018-06-19T01:25:39.930Z,18.01
2018-06-19T01:26:20.375Z,17.99
2018-06-19T01:27:00.767Z,17.95
2018-06-19T01:27:41.185Z,17.96
2018-06-19T01:28:22.198Z,17.94
2018-06-19T01:29:02.615Z,17.92
2018-06-19T01:29:43.027Z,17.91
2018-06-19T01:30:23.363Z,17.92
2018-06-19T01:31:03.766Z,17.96
2018-06-19T01:31:44.285Z,17.94
2018-06-19T01:32:24.640Z,17.91
2018-06-19T01:33:05.524Z,17.84
2018-06-19T01:33:45.517Z,17.87
2018-06-19T01:34:25.856Z,17.86
2018-06-19T01:35:06.304Z,17.91
2018-06-19T01:35:46.650Z,17.95
2018-06-19T01:36:27.134Z,17.83
2018-06-19T01:37:07.543Z,17.86
2018-06-19T01:37:47.976Z,17.84
2018-06-19T01:38:28.348Z,17.86
2018-06-19T01:39:08.707Z,17.84
2018-06-19T01:39:49.077Z,17.84
2018-06-19T01:40:29.544Z,17.84
2018-06-19T01:41:09.932Z,17.71
2018-06-19T01:41:50.318Z,17.73
2018-06-19T01:42:30.709Z,17.76
2018-06-19T01:43:11.061Z,17.71
2018-06-19T01:43:51.512Z,17.83
2018-06-19T01:44:31.877Z,17.86
2018-06-19T01:45:12.262Z,17.84
2018-06-19T01:45:52.690Z,17.79
2018-06-19T01:46:33.063Z,17.84
2018-06-19T01:47:13.430Z,17.86
2018-06-19T01:47:53.872Z,17.71
2018-06-19T01:48:34.273Z,17.7
2018-06-19T01:49:14.730Z,17.73
2018-06-19T01:49:55.040Z,17.74
2018-06-19T01:50:35.492Z,17.68
2018-06-19T01:51:15.908Z,17.7
2018-06-19T01:51:56.333Z,17.65
2018-06-19T01:52:36.715Z,17.7
2018-06-19T01:53:17.190Z,17.73
2018-06-19T01:53:57.577Z,17.76
2018-06-19T01:54:37.975Z,17.73
2018-06-19T01:55:18.313Z,17.73
2018-06-19T01:55:58.762Z,17.73
2018-06-19T01:56:39.140Z,17.65
2018-06-19T01:57:19.585Z,17.65
2018-06-19T01:58:00.042Z,17.74
2018-06-19T01:58:40.358Z,17.71
2018-06-19T01:59:20.848Z,17.65
2018-06-19T02:00:01.261Z,17.65
2018-06-19T02:00:41.635Z,17.6
2018-06-19T02:01:22.083Z,17.66
2018-06-19T02:02:02.478Z,17.65
2018-06-19T02:04:17.864Z,17.57
2018-06-19T02:04:58.655Z,17.57
2018-06-19T02:05:38.968Z,17.63
2018-06-19T02:06:19.353Z,17.65
2018-06-19T02:06:59.797Z,17.55
2018-06-19T02:07:40.149Z,17.55
2018-06-19T02:08:20.597Z,17.6
2018-06-19T02:09:01.034Z,17.71
2018-06-19T02:09:41.388Z,17.53
2018-06-19T02:10:21.807Z,17.55
2018-06-19T02:11:02.214Z,17.51
2018-06-19T02:11:42.638Z,17.49
2018-06-19T02:12:23.016Z,17.47
2018-06-19T02:13:03.499Z,17.53
2018-06-19T02:13:43.886Z,17.49
2018-06-19T02:14:24.219Z,17.49
2018-06-19T02:15:04.715Z,17.42
2018-06-19T02:15:45.080Z,17.46
2018-06-19T02:16:25.445Z,17.46
2018-06-19T02:17:05.901Z,17.4
2018-06-19T02:17:46.265Z,17.45
2018-06-19T02:18:26.636Z,17.43
2018-06-19T02:19:07.103Z,17.42
2018-06-19T02:19:47.493Z,17.39
2018-06-19T02:20:27.842Z,17.4
2018-06-19T02:21:08.245Z,17.42
2018-06-19T02:21:48.625Z,17.39
2018-06-19T02:22:29.114Z,17.42
2018-06-19T02:23:09.579Z,17.39
2018-06-19T02:23:49.893Z,17.38
2018-06-19T02:24:30.418Z,17.3
2018-06-19T02:25:10.831Z,17.42
2018-06-19T02:25:51.186Z,17.39
2018-06-19T02:26:31.589Z,17.4
2018-06-19T02:27:11.954Z,17.39
2018-06-19T02:27:52.384Z,17.3
2018-06-19T02:28:32.805Z,17.38
2018-06-19T02:29:13.106Z,17.35
2018-06-19T02:29:53.546Z,17.33
2018-06-19T02:30:33.953Z,17.32
2018-06-19T02:31:14.313Z,17.36
2018-06-19T02:31:54.803Z,17.39
2018-06-19T02:32:35.147Z,17.39
2018-06-19T02:33:15.549Z,17.35
2018-06-19T02:33:55.982Z,17.27
2018-06-19T02:34:36.306Z,17.27
2018-06-19T02:35:16.719Z,17.39
2018-06-19T02:35:57.125Z,17.3
2018-06-19T02:36:37.530Z,17.33
2018-06-19T02:37:17.946Z,17.25
2018-06-19T02:37:58.240Z,17.32
2018-06-19T02:38:38.624Z,17.27
2018-06-19T02:39:19.045Z,17.27
2018-06-19T02:39:59.494Z,17.18
2018-06-19T02:40:39.852Z,17.28
2018-06-19T02:41:20.305Z,17.25
2018-06-19T02:42:00.742Z,17.3
2018-06-19T02:42:41.037Z,17.21
2018-06-19T02:43:21.533Z,17.25
2018-06-19T02:44:01.927Z,17.14
2018-06-19T02:44:42.331Z,17.17
2018-06-19T02:45:22.695Z,17.14
2018-06-19T02:46:03.114Z,17.21
2018-06-19T02:46:43.544Z,17.12
2018-06-19T02:47:23.896Z,17.15
2018-06-19T02:48:04.347Z,17.21
2018-06-19T02:48:44.726Z,17.1
2018-06-19T02:49:25.115Z,17.14
2018-06-19T02:50:05.518Z,17.14
2018-06-19T02:50:45.890Z,17.09
2018-06-19T02:51:26.280Z,17.14
2018-06-19T02:52:06.686Z,17.1
2018-06-19T02:52:47.157Z,17.09
2018-06-19T02:53:27.545Z,17.07
2018-06-19T02:54:07.917Z,16.99
2018-06-19T02:54:48.299Z,16.99
2018-06-19T02:55:28.714Z,16.99
2018-06-19T02:56:09.017Z,17.03
2018-06-19T02:56:49.425Z,16.96
2018-06-19T02:57:29.872Z,17.06
2018-06-19T02:58:10.218Z,17.07
2018-06-19T02:58:50.665Z,16.98
2018-06-19T02:59:30.990Z,16.92
2018-06-19T03:00:11.393Z,16.99
2018-06-19T03:00:51.842Z,17
2018-06-19T03:01:32.266Z,17.07
2018-06-19T03:02:12.622Z,17.09
2018-06-19T03:02:53.051Z,17.09
2018-06-19T03:03:33.475Z,16.99
2018-06-19T03:04:13.838Z,17.05
2018-06-19T03:04:54.250Z,17.07
2018-06-19T03:05:34.661Z,17.18
2018-06-19T03:06:15.076Z,17.14
2018-06-19T03:06:55.488Z,17.18
2018-06-19T03:07:35.824Z,17.15
2018-06-19T03:08:16.189Z,17.09
2018-06-19T03:08:56.656Z,17.15
2018-06-19T03:09:37.046Z,17.14
2018-06-19T03:10:17.419Z,17.1
2018-06-19T03:10:57.798Z,17.15
2018-06-19T03:11:38.279Z,17.1
2018-06-19T03:12:18.627Z,17.12
2018-06-19T03:12:59.081Z,16.98
2018-06-19T03:13:39.440Z,16.96
2018-06-19T03:14:19.884Z,17.07
2018-06-19T03:15:00.251Z,17
2018-06-19T03:15:40.635Z,17.03
2018-06-19T03:16:21.092Z,16.96
2018-06-19T03:17:01.431Z,16.96
2018-06-19T03:17:42.012Z,16.96
2018-06-19T03:18:22.428Z,16.91
2018-06-19T03:19:02.842Z,16.92
2018-06-19T03:19:43.291Z,16.92
2018-06-19T03:20:23.658Z,16.92
2018-06-19T03:21:04.078Z,16.9
2018-06-19T03:21:44.533Z,16.9
2018-06-19T03:22:24.881Z,16.91
2018-06-19T03:23:05.264Z,16.92
2018-06-19T03:23:45.665Z,16.99
2018-06-19T03:24:26.059Z,16.95
2018-06-19T03:25:06.468Z,17.06
2018-06-19T03:25:46.864Z,16.92
2018-06-19T03:26:27.353Z,16.95
2018-06-19T03:27:07.712Z,17.06
2018-06-19T03:27:48.196Z,16.98
2018-06-19T03:28:28.515Z,16.99
2018-06-19T03:29:08.958Z,17.12
2018-06-19T03:29:49.438Z,17.1
2018-06-19T03:30:29.852Z,17.15
2018-06-19T03:31:10.205Z,17.14
2018-06-19T03:31:50.673Z,17.15
2018-06-19T03:32:31.218Z,17.27
2018-06-19T03:33:11.530Z,17.27
2018-06-19T03:33:51.923Z,17.27
2018-06-19T03:34:32.372Z,17.35
2018-06-19T03:35:12.761Z,17.36
2018-06-19T03:35:53.288Z,17.33
2018-06-19T03:36:33.599Z,17.39
2018-06-19T03:37:14.028Z,17.36
2018-06-19T03:37:54.406Z,17.47
2018-06-19T03:38:34.921Z,17.43
2018-06-19T03:39:15.290Z,17.49
2018-06-19T03:39:55.657Z,17.55
2018-06-19T03:40:36.060Z,17.62
2018-06-19T03:41:16.486Z,17.65
2018-06-19T03:41:56.917Z,17.7
2018-06-19T03:42:37.268Z,17.71
2018-06-19T03:43:17.784Z,17.73
2018-06-19T03:43:58.146Z,17.83
2018-06-19T03:44:38.538Z,17.79
2018-06-19T03:45:18.935Z,17.86
2018-06-19T03:45:59.288Z,17.86
2018-06-19T03:46:39.850Z,17.96
2018-06-19T03:47:20.240Z,17.95
2018-06-19T03:48:00.639Z,17.95
2018-06-19T03:48:41.010Z,17.95
2018-06-19T03:49:21.471Z,17.96
2018-06-19T03:50:01.820Z,18.04
2018-06-19T03:50:42.268Z,18.1
2018-06-19T03:51:22.670Z,18.17
2018-06-19T03:52:03.053Z,18.14
2018-06-19T03:52:43.561Z,18.31
2018-06-19T03:53:23.962Z,18.31
2018-06-19T03:54:04.325Z,18.26
2018-06-19T03:54:44.780Z,18.32
2018-06-19T03:55:25.128Z,18.32
2018-06-19T03:56:05.577Z,18.32
2018-06-19T03:56:46.022Z,18.38
2018-06-19T03:57:26.364Z,18.47
2018-06-19T03:58:06.757Z,18.35
2018-06-19T03:58:47.240Z,18.47
2018-06-19T03:59:27.642Z,18.44
2018-06-19T04:00:07.998Z,18.53
2018-06-19T04:00:48.526Z,18.56
2018-06-19T04:01:28.910Z,18.54
2018-06-19T04:02:09.271Z,18.57
2018-06-19T04:43:34.756Z,18.64
2018-06-19T04:44:14.209Z,18.62
2018-06-19T04:44:54.733Z,18.66
2018-06-19T04:45:35.136Z,18.74
2018-06-19T04:46:15.616Z,18.75
2018-06-19T04:46:56.041Z,18.78
2018-06-19T04:47:36.377Z,18.78
2018-06-19T04:48:16.896Z,18.78
2018-06-19T04:48:57.362Z,18.9
2018-06-19T04:49:37.999Z,18.79
2018-06-19T04:50:18.447Z,18.84
2018-06-19T04:50:58.866Z,18.93
2018-06-19T04:51:39.413Z,18.93
2018-06-19T04:55:13.865Z,19.27
2018-06-19T04:55:54.319Z,19.3
2018-06-19T04:56:33.712Z,19.3
2018-06-19T04:57:14.435Z,19.31
2018-06-19T04:57:57.380Z,19.25
2018-06-19T04:58:40.688Z,19.27
2018-06-19T04:59:21.179Z,19.34
2018-06-19T05:00:01.789Z,19.34
2018-06-19T05:00:43.239Z,19.39
2018-06-19T05:01:24.333Z,19.45
2018-06-19T05:02:05.665Z,19.57
2018-06-19T05:02:45.991Z,19.57
2018-06-19T05:03:26.392Z,19.57
2018-06-19T05:04:11.249Z,19.6
2018-06-19T05:04:51.692Z,19.61
2018-06-19T05:05:32.204Z,19.58
2018-06-19T05:06:13.414Z,19.61
2018-06-19T05:06:53.804Z,19.57
2018-06-19T05:07:35.484Z,19.57
2018-06-19T05:08:15.687Z,19.57
2018-06-19T05:09:01.678Z,19.68
2018-06-19T05:09:42.361Z,19.71
2018-06-19T05:10:23.256Z,19.62
2018-06-19T05:11:04.332Z,19.64
2018-06-19T05:11:45.908Z,19.68
2018-06-19T05:12:26.141Z,19.67
2018-06-19T05:13:07.461Z,19.7
2018-06-19T05:13:49.405Z,19.58
2018-06-19T05:14:29.734Z,19.58
2018-06-19T05:15:10.151Z,19.62
2018-06-19T05:15:51.881Z,19.65
2018-06-19T05:16:33.920Z,19.71
2018-06-19T05:17:18.060Z,19.72
2018-06-19T05:20:26.539Z,19.62
2018-06-19T05:21:08.753Z,19.7
2018-06-19T05:21:48.884Z,19.7
2018-06-19T05:22:29.460Z,19.71
2018-06-19T05:23:10.969Z,19.75
2018-06-19T05:23:52.325Z,19.65
2018-06-19T05:24:35.906Z,19.7
2018-06-19T05:25:18.369Z,19.75
2018-06-19T05:25:57.815Z,19.72
2018-06-19T05:26:44.296Z,19.78
2018-06-19T05:27:24.133Z,19.71
2018-06-19T05:28:04.688Z,19.8
2018-06-19T05:28:45.029Z,19.82
2018-06-19T05:30:59.379Z,19.75
2018-06-19T05:33:15.818Z,19.78
2018-06-19T05:36:43.134Z,19.85
2018-06-19T05:37:25.841Z,19.9
2018-06-19T05:38:06.235Z,19.89
2018-06-19T05:38:49.316Z,19.92
2018-06-19T05:43:14.253Z,20.1
2018-06-19T05:43:58.897Z,19.98
2018-06-19T05:44:39.070Z,20.05
2018-06-19T05:45:19.750Z,20.08
2018-06-19T05:46:00.419Z,20.1
2018-06-19T05:46:40.640Z,20.17
2018-06-19T05:47:21.171Z,20.25
2018-06-19T05:48:01.639Z,20.2
2018-06-19T05:48:41.937Z,20.27
2018-06-19T05:49:22.739Z,20.3
2018-06-19T05:50:03.010Z,20.37
2018-06-19T05:50:43.359Z,20.34
2018-06-19T05:51:23.847Z,20.38
2018-06-19T05:52:04.280Z,20.3
2018-06-19T05:52:44.772Z,20.33
2018-06-19T05:53:25.995Z,20.34
2018-06-19T05:54:06.407Z,20.33
2018-06-19T05:54:46.885Z,20.4
2018-06-19T05:55:27.276Z,20.37
2018-06-19T05:56:07.764Z,20.51
2018-06-19T05:56:48.277Z,20.46
2018-06-19T05:57:28.673Z,20.46
2018-06-19T05:58:09.062Z,20.46
2018-06-19T05:58:49.621Z,20.48
2018-06-19T05:59:30.050Z,20.46
2018-06-19T06:00:10.471Z,20.48
2018-06-19T06:00:50.843Z,20.42
2018-06-19T06:01:31.332Z,20.42
2018-06-19T06:02:11.650Z,20.46
2018-06-19T06:02:52.123Z,20.44
2018-06-19T06:03:32.574Z,20.48
2018-06-19T06:04:12.966Z,20.44
2018-06-19T06:04:53.445Z,20.4
2018-06-19T06:05:34.009Z,20.41
2018-06-19T06:06:14.409Z,20.37
2018-06-19T06:06:55.080Z,20.44
2018-06-19T06:07:35.464Z,20.44
2018-06-19T06:08:16.381Z,20.46
2018-06-19T06:08:56.608Z,20.46
2018-06-19T06:09:37.520Z,20.42
2018-06-19T06:10:17.798Z,20.44
2018-06-19T06:10:58.460Z,20.5
2018-06-19T06:11:40.585Z,20.58
2018-06-19T06:12:20.545Z,20.5
2018-06-19T06:13:01.011Z,20.51
2018-06-19T06:13:41.378Z,20.46
2018-06-19T06:14:21.968Z,20.63
2018-06-19T06:15:02.908Z,20.61
2018-06-19T06:15:43.333Z,20.61
2018-06-19T06:16:23.809Z,20.61
2018-06-19T06:17:04.274Z,20.63
2018-06-19T06:17:44.943Z,20.64
2018-06-19T06:18:25.208Z,20.68
2018-06-19T06:19:05.705Z,20.75
2018-06-19T06:19:46.250Z,20.75
2018-06-19T06:20:26.676Z,20.79
2018-06-19T06:21:07.326Z,20.78
2018-06-19T06:21:47.798Z,20.85
2018-06-19T06:22:28.290Z,20.88
2018-06-19T06:23:08.701Z,20.97
2018-06-19T06:23:49.084Z,20.96
2018-06-19T06:24:29.567Z,20.97
2018-06-19T06:25:10.096Z,21.05
2018-06-19T06:25:50.584Z,20.97
2018-06-19T06:26:31.590Z,21.13
2018-06-19T06:27:11.587Z,21.09
2018-06-19T06:27:52.191Z,21.15
2018-06-19T06:28:32.640Z,21.26
2018-06-19T06:29:13.540Z,21.19
2018-06-19T06:29:54.442Z,21.27
2018-06-19T06:30:39.064Z,21.26
2018-06-19T06:31:23.789Z,21.24
2018-06-19T06:33:11.130Z,21.34
2018-06-19T06:34:43.564Z,21.34
2018-06-19T06:35:22.848Z,21.37
2018-06-19T06:36:03.227Z,21.38
2018-06-19T06:36:43.664Z,21.43
2018-06-19T06:37:24.761Z,21.42
2018-06-19T06:38:06.491Z,21.48
2018-06-19T06:38:47.374Z,21.49
2018-06-19T06:39:29.485Z,21.56
2018-06-19T06:40:11.625Z,21.46
2018-06-19T06:40:55.406Z,21.55
2018-06-19T06:51:04.150Z,21.75
2018-06-19T06:53:08.227Z,21.71
2018-06-19T06:53:51.622Z,21.83
2018-06-19T06:54:32.123Z,21.85
2018-06-19T06:55:14.108Z,21.86
2018-06-19T06:55:55.084Z,21.86
2018-06-19T06:56:35.308Z,21.9
2018-06-19T06:57:16.110Z,21.9
2018-06-19T06:57:56.730Z,21.94
2018-06-19T06:58:37.294Z,21.99
2018-06-19T06:59:18.855Z,21.99
2018-06-19T06:59:59.092Z,22.04
2018-06-19T07:00:39.691Z,21.96
2018-06-19T07:01:21.102Z,22.06
2018-06-19T07:02:05.713Z,22.08
2018-06-19T07:02:46.178Z,22.09
2018-06-19T07:03:26.645Z,22.06
2018-06-19T07:04:08.116Z,22.11
2018-06-19T07:04:48.372Z,22.2
2018-06-19T07:05:29.146Z,22.19
2018-06-19T07:06:10.627Z,22.29
2018-06-19T07:06:51.792Z,22.35
2018-06-19T07:07:32.815Z,22.27
2018-06-19T07:08:13.857Z,22.21
2018-06-19T07:08:54.599Z,22.24
2018-06-19T07:09:36.090Z,22.14
2018-06-19T07:10:15.684Z,22.04
2018-06-19T07:10:55.966Z,22.04
2018-06-19T07:11:36.627Z,22.06
2018-06-19T07:12:17.657Z,22.08
2018-06-19T07:12:58.683Z,22.17
2018-06-19T07:13:39.119Z,22.05
2018-06-19T07:14:19.284Z,22.09
2018-06-19T07:14:59.917Z,22.04
2018-06-19T07:15:40.301Z,21.94
2018-06-19T07:16:20.727Z,21.94
2018-06-19T07:17:01.156Z,21.99
2018-06-19T07:17:41.554Z,21.9
2018-06-19T07:18:21.987Z,21.98
2018-06-19T07:19:02.391Z,21.98
2018-06-19T07:19:43.753Z,22.02
2018-06-19T07:20:24.280Z,21.96
2018-06-19T07:21:04.706Z,22.02
2018-06-19T07:21:45.132Z,22.04
2018-06-19T07:22:25.529Z,22.12
2018-06-19T07:23:06.004Z,22.14
2018-06-19T07:23:53.547Z,22.05
2018-06-19T07:24:33.985Z,22.11
2018-06-19T07:25:15.114Z,22.21
2018-06-19T07:25:55.747Z,22.26
2018-06-19T07:26:36.801Z,22.21
2018-06-19T07:27:17.177Z,22.23
2018-06-19T07:27:57.966Z,22.23
2018-06-19T07:28:38.305Z,22.24
2018-06-19T07:34:49.870Z,22.26
2018-06-19T07:35:51.183Z,22.26
2018-06-19T07:36:33.410Z,22.38
2018-06-19T07:37:13.460Z,22.33
2018-06-19T07:37:54.139Z,22.38
2018-06-19T07:38:35.712Z,22.3
2018-06-19T07:39:16.177Z,22.2
2018-06-19T07:39:57.009Z,22.19
2018-06-19T07:40:38.119Z,22.21
2018-06-19T07:41:18.476Z,22.3
2018-06-19T07:41:59.959Z,22.42
2018-06-19T07:42:40.261Z,22.33
2018-06-19T07:43:21.577Z,22.33
2018-06-19T07:44:02.153Z,22.29
2018-06-19T07:44:42.766Z,22.21
2018-06-19T07:45:23.533Z,22.26
2018-06-19T07:46:04.952Z,22.26
2018-06-19T07:46:45.860Z,22.2
2018-06-19T07:47:27.049Z,22.09
2018-06-19T07:48:06.773Z,22.05
2018-06-19T07:48:48.196Z,22.09
2018-06-19T07:49:28.589Z,22.04
2018-06-19T07:50:08.964Z,21.93
2018-06-19T07:50:49.770Z,21.96
2018-06-19T07:51:30.092Z,21.89
2018-06-19T07:52:10.778Z,21.86
2018-06-19T07:52:52.007Z,21.89
2018-06-19T07:53:35.271Z,22.06
2018-06-19T07:54:18.509Z,22.05
2018-06-19T07:55:02.990Z,22.09
2018-06-19T07:55:45.274Z,22.09
2018-06-19T07:56:26.129Z,22.23
2018-06-19T07:58:28.715Z,22.38
2018-06-19T07:59:12.412Z,22.45
2018-06-19T07:59:52.862Z,22.42
2018-06-19T08:00:34.065Z,22.41
2018-06-19T08:01:15.158Z,22.49
2018-06-19T08:01:55.239Z,22.56
2018-06-19T08:04:49.547Z,22.46
2018-06-19T08:05:38.586Z,22.48
2018-06-19T08:06:27.344Z,22.56
2018-06-19T08:07:16.485Z,22.6
2018-06-19T08:08:08.013Z,22.48
2018-06-19T08:08:48.872Z,22.48
2018-06-19T08:09:29.111Z,22.56
2018-06-19T08:10:09.579Z,22.51
2018-06-19T08:10:50.089Z,22.52
2018-06-19T08:11:30.583Z,22.56
2018-06-19T08:12:11.041Z,22.66
2018-06-19T08:12:51.880Z,22.63
2018-06-19T08:13:32.273Z,22.7
2018-06-19T08:14:12.761Z,22.74
2018-06-19T08:14:53.320Z,22.78
2018-06-19T08:15:33.758Z,22.75
2018-06-19T08:16:14.213Z,22.82
2018-06-19T08:16:54.803Z,22.81
2018-06-19T08:17:35.396Z,22.93
2018-06-19T08:18:15.920Z,22.96
2018-06-19T08:18:56.306Z,22.97
2018-06-19T08:19:36.694Z,22.88
2018-06-19T08:20:17.184Z,22.88
2018-06-19T08:20:57.599Z,22.86
2018-06-19T08:21:37.990Z,22.93
2018-06-19T08:22:18.468Z,22.94
2018-06-19T08:22:58.936Z,22.82
2018-06-19T08:23:42.300Z,22.89
2018-06-19T08:24:29.568Z,22.89
2018-06-19T08:25:09.883Z,22.97
2018-06-19T08:26:09.011Z,23.01
2018-06-19T08:26:49.448Z,23.09
2018-06-19T08:27:29.974Z,23.04
2018-06-19T08:28:10.375Z,23.04
2018-06-19T08:28:50.801Z,23.01
2018-06-19T08:29:31.159Z,23.09
2018-06-19T08:30:11.642Z,23.07
2018-06-19T08:30:52.070Z,23.14
2018-06-19T08:31:32.477Z,23.12
2018-06-19T08:32:13.071Z,23.09
2018-06-19T08:35:25.229Z,22.91
2018-06-19T08:36:05.882Z,22.93
2018-06-19T08:36:46.588Z,22.76
2018-06-19T08:37:27.492Z,22.75
2018-06-19T08:38:08.097Z,22.81
2018-06-19T08:38:48.520Z,22.72
2018-06-19T08:39:29.115Z,22.86
2018-06-19T08:40:11.063Z,22.93
2018-06-19T08:40:51.428Z,22.89
2018-06-19T08:41:32.208Z,22.75
2018-06-19T08:42:13.827Z,22.78
2018-06-19T08:42:54.578Z,22.76
2018-06-19T08:43:35.919Z,22.82
2018-06-19T08:44:16.934Z,22.93
2018-06-19T08:44:58.117Z,22.91
2018-06-19T08:45:38.385Z,22.88
2018-06-19T08:46:19.498Z,22.99
2018-06-19T08:47:00.846Z,22.79
2018-06-19T08:47:41.850Z,22.85
2018-06-19T08:48:21.858Z,22.78
2018-06-19T08:49:03.808Z,22.91
2018-06-19T08:49:43.808Z,22.85
2018-06-19T08:50:24.872Z,22.84
2018-06-19T08:51:05.399Z,22.93
2018-06-19T08:51:46.761Z,22.88
2018-06-19T08:52:29.017Z,22.89
2018-06-19T08:53:10.630Z,22.86
2018-06-19T08:53:51.480Z,22.91
2018-06-19T08:54:31.920Z,22.91
2018-06-19T08:55:13.319Z,22.93
2018-06-19T08:55:54.299Z,22.86
2018-06-19T08:56:35.302Z,22.96
2018-06-19T08:57:16.452Z,22.78
2018-06-19T08:57:56.664Z,22.75
2018-06-19T08:58:37.673Z,22.72
2018-06-19T08:59:19.296Z,22.72
2018-06-19T09:00:01.027Z,22.7
2018-06-19T09:00:41.944Z,22.81
2018-06-19T09:01:24.359Z,22.74
2018-06-19T09:02:04.919Z,22.74
2018-06-19T09:02:45.658Z,22.72
2018-06-19T09:03:26.650Z,22.84
2018-06-19T09:04:09.010Z,22.75
2018-06-19T09:04:48.974Z,22.74
2018-06-19T09:05:29.457Z,22.89
2018-06-19T09:06:10.958Z,22.79
2018-06-19T09:06:51.731Z,22.91
2018-06-19T09:07:32.535Z,22.89
2018-06-19T09:08:15.340Z,22.93
2018-06-19T09:08:55.878Z,22.99
2018-06-19T09:09:36.683Z,22.97
2018-06-19T09:10:17.778Z,23.03
2018-06-19T09:11:00.022Z,23
2018-06-19T09:11:40.549Z,22.93
2018-06-19T09:12:21.682Z,22.97
2018-06-19T09:13:02.223Z,22.93
2018-06-19T09:13:43.648Z,22.84
2018-06-19T09:14:27.576Z,22.81
2018-06-19T09:15:08.538Z,22.82
2018-06-19T09:15:49.627Z,22.91
2018-06-19T09:16:30.068Z,22.82
2018-06-19T09:17:11.775Z,22.81
2018-06-19T09:17:51.467Z,22.7
2018-06-19T09:18:32.138Z,22.82
2018-06-19T09:19:13.908Z,22.93
2018-06-19T09:19:54.637Z,22.94
2018-06-19T09:20:35.158Z,22.96
2018-06-19T09:21:17.847Z,22.86
2018-06-19T09:21:58.518Z,22.96
2018-06-19T09:22:39.814Z,22.96
2018-06-19T09:23:21.809Z,22.93
2018-06-19T09:24:02.352Z,23.03
2018-06-19T09:24:43.281Z,23.09
2018-06-19T09:25:23.983Z,23.07
2018-06-19T09:26:07.811Z,23.06
2018-06-19T09:26:49.496Z,23.11
2018-06-19T09:27:32.315Z,23.16
2018-06-19T09:28:12.302Z,23.22
2018-06-19T09:28:53.359Z,23.16
2018-06-19T09:29:34.253Z,23.22
2018-06-19T09:30:16.609Z,23.15
2018-06-19T09:30:57.901Z,23.18
2018-06-19T09:31:41.042Z,23.22
2018-06-19T09:32:21.671Z,23.19
2018-06-19T09:33:03.158Z,23.15
2018-06-19T09:33:44.969Z,23.06
2018-06-19T09:34:25.973Z,22.99
2018-06-19T09:35:07.135Z,22.91
2018-06-19T09:35:47.646Z,23.03
2018-06-19T09:36:29.990Z,22.88
2018-06-19T09:37:10.244Z,22.91
2018-06-19T09:37:52.397Z,22.81
2018-06-19T09:38:33.454Z,22.81
2018-06-19T09:39:14.208Z,22.72
2018-06-19T09:39:55.993Z,22.75
2018-06-19T09:40:37.696Z,22.75
2018-06-19T09:41:23.172Z,22.75
2018-06-19T09:43:03.394Z,22.81
2018-06-19T09:43:43.191Z,22.75
2018-06-19T09:44:23.645Z,22.74
2018-06-19T09:45:05.684Z,22.79
2018-06-19T09:45:47.069Z,22.84
2018-06-19T09:49:16.031Z,23.04
2018-06-19T09:49:56.337Z,23.01
2018-06-19T09:50:36.507Z,23.06
2018-06-19T09:51:17.365Z,23.23
2018-06-19T09:51:57.692Z,23.34
2018-06-19T09:52:38.510Z,23.39
2018-06-19T09:53:20.519Z,23.59
2018-06-19T09:54:00.520Z,23.57
2018-06-19T09:54:41.015Z,23.68
2018-06-19T09:55:21.613Z,23.79
2018-06-19T09:56:02.014Z,23.87
2018-06-19T09:56:42.484Z,23.9
2018-06-19T09:57:23.947Z,24.05
2018-06-19T09:58:04.408Z,24.08
2018-06-19T09:58:45.849Z,24.15
2018-06-19T09:59:26.732Z,24.16
2018-06-19T10:00:06.405Z,24.14
2018-06-19T10:00:46.798Z,24.15
2018-06-19T10:01:28.337Z,24.15
2018-06-19T10:02:10.391Z,24.09
2018-06-19T10:02:50.607Z,24.12
2018-06-19T10:03:33.357Z,24.14
2018-06-19T10:42:42.917Z,23.14
2018-06-19T10:43:24.476Z,23.06
2018-06-19T10:44:06.235Z,23.06
2018-06-19T10:44:46.006Z,23.07
2018-06-19T10:45:26.366Z,23.03
2018-06-19T10:46:06.886Z,22.93
2018-06-19T10:46:47.267Z,22.97
2018-06-19T10:47:27.786Z,23.06
2018-06-19T10:48:08.214Z,23.04
2018-06-19T10:48:48.785Z,23.14
2018-06-19T10:49:29.155Z,23.06
2018-06-19T10:50:09.532Z,23.16
2018-06-19T10:50:50.099Z,23.11
2018-06-19T10:51:30.581Z,23.18